Bookmark and Share
Track history (hours):
 

Stephen Scott

More information available from US FCC via Universal Licensing System and Coast Guard Vessel Documentation Center.

Last reported at 2014-Apr-24 17:33 UTC. Time now 2014-Apr-25 05:47 UTC.
Position N 39°32' W 074°06'.

Length 30 m; draft 2.5 m.

Type: Towing. MMSI: 366245490.

NotesDate/timePositionNaut miles runAvg speedWind from/ knotsBaromVisibWave heightAir tempDewpointWater temp
2014-Apr-24 17:33N 39°32' W 074°06'8 7.4
2014-Apr-24 16:32N 39°39' W 074°02'7 7.5
2014-Apr-24 15:33N 39°46' W 073°59'8 7.7
2014-Apr-24 14:33N 39°54' W 073°57'37 7.4
2014-Apr-24 09:33N 40°31' W 073°59'6 6.4
2014-Apr-24 08:33N 40°37' W 074°03'3 2.8
2014-Apr-24 07:33N 40°39' W 074°05'7 1.6
2014-Apr-24 03:18N 40°35' W 074°13'5 6.1
2014-Apr-24 02:33N 40°39' W 074°09'6 6.4
2014-Apr-24 01:33N 40°40' W 074°01'1 1.4
2014-Apr-24 00:33N 40°40' W 074°03'4 4.0
2014-Apr-23 23:33N 40°38' W 074°08'0 0.0
2014-Apr-23 22:33N 40°38' W 074°08'0 0.0
2014-Apr-23 21:33N 40°38' W 074°08'0 0.0
2014-Apr-23 20:33N 40°38' W 074°08'0 0.0
2014-Apr-23 19:33N 40°38' W 074°08'5 5.3
2014-Apr-23 18:33N 40°40' W 074°01'0 0.0
2014-Apr-23 17:33N 40°40' W 074°01'0 0.0
2014-Apr-23 16:33N 40°40' W 074°01'0 0.0
2014-Apr-23 15:33N 40°40' W 074°01'4 3.3
2014-Apr-23 14:15N 40°39' W 074°07'3 4.7
2014-Apr-23 13:33N 40°39' W 074°11'4 0.7
2014-Apr-23 07:26N 40°35' W 074°13'6 6.3
2014-Apr-23 06:32N 40°39' W 074°07'5 5.5
2014-Apr-23 05:33N 40°35' W 074°02'5 4.2
2014-Apr-23 04:25N 40°31' W 073°59'8 6.7
2014-Apr-23 03:12N 40°24' W 073°54'5 8.3
2014-Apr-23 02:32N 40°18' W 073°55'9 8.2
2014-Apr-23 01:29N 40°09' W 073°55'9 8.1
2014-Apr-23 00:21N 40°00' W 073°57'7 8.3
2014-Apr-22 23:32N 39°54' W 073°58'8 8.2
2014-Apr-22 22:33N 39°46' W 073°59'9 8.3
2014-Apr-22 21:30N 39°37' W 074°03'10 8.4
2014-Apr-22 20:15N 39°28' W 074°08'15 8.6
2014-Apr-22 18:28N 39°15' W 074°19'8 8.6
2014-Apr-22 17:32N 39°09' W 074°27'8 8.3
2014-Apr-22 16:33N 39°04' W 074°34'9 8.0
2014-Apr-22 15:29N 38°58' W 074°43'73 5.6
2014-Apr-22 02:32N 39°19' W 076°13'9 8.7
2014-Apr-22 01:33N 39°11' W 076°17'8 7.7
2014-Apr-22 00:33N 39°11' W 076°27'6 5.6
2014-Apr-21 23:33N 39°14' W 076°33'3 3.0
2014-Apr-21 22:33N 39°16' W 076°35'3 2.6
2014-Apr-21 21:33N 39°15' W 076°32'1 1.0
2014-Apr-21 20:33N 39°14' W 076°33'0 0.0
2014-Apr-21 19:33N 39°14' W 076°33'0 0.0
2014-Apr-21 18:34N 39°14' W 076°33'0 0.0
2014-Apr-21 17:33N 39°14' W 076°33'1 0.6
2014-Apr-21 16:33N 39°14' W 076°33'1 0.6
2014-Apr-21 15:33N 39°14' W 076°33'0 0.0
2014-Apr-21 14:33N 39°14' W 076°33'0 0.0
2014-Apr-21 13:33N 39°14' W 076°33'0 0.0
2014-Apr-21 12:33N 39°14' W 076°33'0 0.0
2014-Apr-21 11:33N 39°14' W 076°33'0 0.0
2014-Apr-21 10:33N 39°14' W 076°33'0 0.0
2014-Apr-21 09:33N 39°14' W 076°33'0 0.0
2014-Apr-21 08:33N 39°14' W 076°33'0 0.0
2014-Apr-21 07:33N 39°14' W 076°33'0 0.0
2014-Apr-21 06:33N 39°14' W 076°33'0 0.0
2014-Apr-21 05:33N 39°14' W 076°33'3 3.0
2014-Apr-21 04:33N 39°16' W 076°35'3 3.0
2014-Apr-21 03:33N 39°14' W 076°33'0 0.0
2014-Apr-21 02:33N 39°14' W 076°33'3 3.0
2014-Apr-21 01:33N 39°16' W 076°35'0 0.1
2014-Apr-21 00:33N 39°16' W 076°35'1 1.1
2014-Apr-20 23:34N 39°15' W 076°34'2 1.6
2014-Apr-20 22:33N 39°17' W 076°35'4 3.8
2014-Apr-20 21:33N 39°13' W 076°33'1 0.9
2014-Apr-20 20:34N 39°13' W 076°32'0 0.3
2014-Apr-20 19:33N 39°13' W 076°32'1 0.9
2014-Apr-20 18:33N 39°14' W 076°33'0 0.0
2014-Apr-20 17:33N 39°14' W 076°33'2 1.7
2014-Apr-20 16:33N 39°13' W 076°31'2 1.6
2014-Apr-20 15:33N 39°14' W 076°33'0 0.4
2014-Apr-20 14:33N 39°14' W 076°33'0 0.0
2014-Apr-20 13:33N 39°14' W 076°33'0 0.0
2014-Apr-20 12:33N 39°14' W 076°33'0 0.0
2014-Apr-20 11:33N 39°14' W 076°33'0 0.0
2014-Apr-20 10:33N 39°14' W 076°33'0 0.0
2014-Apr-20 09:33N 39°14' W 076°33'0 0.0
2014-Apr-20 08:33N 39°14' W 076°33'0 0.0
2014-Apr-20 07:33N 39°14' W 076°33'0 0.1
2014-Apr-20 06:33N 39°14' W 076°33'0 0.0
2014-Apr-20 05:33N 39°14' W 076°33'0 0.0
2014-Apr-20 04:33N 39°14' W 076°33'0 0.2
2014-Apr-20 03:33N 39°14' W 076°33'2 1.8
2014-Apr-20 02:33N 39°15' W 076°34'0 0.4
2014-Apr-20 01:33N 39°16' W 076°34'1 0.6
2014-Apr-20 00:34N 39°16' W 076°35'0 0.0
2014-Apr-19 23:33N 39°16' W 076°35'0 0.0
2014-Apr-19 22:33N 39°16' W 076°35'0 0.0
2014-Apr-19 21:33N 39°16' W 076°35'0 0.0
2014-Apr-19 20:33N 39°16' W 076°35'3 2.9
2014-Apr-19 19:33N 39°14' W 076°33'0 0.0
2014-Apr-19 18:33N 39°14' W 076°33'0 0.0
2014-Apr-19 17:33N 39°14' W 076°33'0 0.0
2014-Apr-19 16:33N 39°14' W 076°33'0 0.0
2014-Apr-19 15:33N 39°14' W 076°33'0 0.0
2014-Apr-19 14:33N 39°14' W 076°33'0 0.0
2014-Apr-19 13:34N 39°14' W 076°33'0 0.0
2014-Apr-19 12:34N 39°14' W 076°33'0 0.0
2014-Apr-19 11:33N 39°14' W 076°33'0 0.0
2014-Apr-19 10:33N 39°14' W 076°33'0 0.0
2014-Apr-19 09:33N 39°14' W 076°33'0 0.1
2014-Apr-19 08:34N 39°14' W 076°33'0 0.0
2014-Apr-19 07:33N 39°14' W 076°33'0 0.0
2014-Apr-19 06:33N 39°14' W 076°33'0 0.0
2014-Apr-19 05:33N 39°14' W 076°33'0 0.0
2014-Apr-19 04:33N 39°14' W 076°33'0 0.0
2014-Apr-19 03:33N 39°14' W 076°33'0 0.0
2014-Apr-19 02:33N 39°14' W 076°33'0 0.0
2014-Apr-19 01:33N 39°14' W 076°33'0 0.0
2014-Apr-19 00:33N 39°14' W 076°33'0 0.0
2014-Apr-18 23:33N 39°14' W 076°33'0 0.0
2014-Apr-18 22:33N 39°14' W 076°33'0 0.0
2014-Apr-18 21:33N 39°14' W 076°33'0 0.0
2014-Apr-18 20:33N 39°14' W 076°33'0 0.0
2014-Apr-18 19:33N 39°14' W 076°33'0 0.0
2014-Apr-18 18:33N 39°14' W 076°33'0 0.0
2014-Apr-18 17:34N 39°14' W 076°33'0 0.0
2014-Apr-18 16:33N 39°14' W 076°33'0 0.0
2014-Apr-18 15:33N 39°14' W 076°33'0 0.0
2014-Apr-18 14:33N 39°14' W 076°33'0 0.0
2014-Apr-18 13:33N 39°14' W 076°33'0 0.0
2014-Apr-18 12:34N 39°14' W 076°33'0 0.0
2014-Apr-18 11:33N 39°14' W 076°33'0 0.0
2014-Apr-18 10:33N 39°14' W 076°33'0 0.0
2014-Apr-18 09:33N 39°14' W 076°33'0 0.0
2014-Apr-18 08:34N 39°14' W 076°33'0 0.0
2014-Apr-18 07:33N 39°14' W 076°33'0 0.0
2014-Apr-18 06:34N 39°14' W 076°33'0 0.0
2014-Apr-18 05:33N 39°14' W 076°33'0 0.0
2014-Apr-18 04:34N 39°14' W 076°33'0 0.0
2014-Apr-18 03:33N 39°14' W 076°33'0 0.0
2014-Apr-18 02:33N 39°14' W 076°33'0 0.0
2014-Apr-18 01:33N 39°14' W 076°33'0 0.0
2014-Apr-18 00:33N 39°14' W 076°33'0 0.0
2014-Apr-17 23:33N 39°14' W 076°33'0 0.0
2014-Apr-17 22:33N 39°14' W 076°33'0 0.0
2014-Apr-17 21:33N 39°14' W 076°33'0 0.0
2014-Apr-17 20:33N 39°14' W 076°33'0 0.0
2014-Apr-17 19:33N 39°14' W 076°33'0 0.0
2014-Apr-17 18:33N 39°14' W 076°33'0 0.0
2014-Apr-17 17:33N 39°14' W 076°33'0 0.0
2014-Apr-17 16:33N 39°14' W 076°33'0 0.0
2014-Apr-17 15:33N 39°14' W 076°33'0 0.0
2014-Apr-17 14:33N 39°14' W 076°33'0 0.0
2014-Apr-17 13:33N 39°14' W 076°33'0 0.0
2014-Apr-17 12:33N 39°14' W 076°33'0 0.0
2014-Apr-17 11:33N 39°14' W 076°33'0 0.0
2014-Apr-17 10:33N 39°14' W 076°33'0 0.0
2014-Apr-17 09:33N 39°14' W 076°33'0 0.0
2014-Apr-17 08:33N 39°14' W 076°33'0 0.0
2014-Apr-17 07:33N 39°14' W 076°33'0 0.0
2014-Apr-17 06:33N 39°14' W 076°33'0 0.0
2014-Apr-17 05:33N 39°14' W 076°33'0 0.0
2014-Apr-17 04:33N 39°14' W 076°33'0 0.0
2014-Apr-17 03:33N 39°14' W 076°33'0 0.0
2014-Apr-17 02:33N 39°14' W 076°33'0 0.0
2014-Apr-17 01:33N 39°14' W 076°33'0 0.0
2014-Apr-17 00:33N 39°14' W 076°33'0 0.0
2014-Apr-16 23:33N 39°14' W 076°33'0 0.0
2014-Apr-16 22:33N 39°14' W 076°33'0 0.0
2014-Apr-16 21:33N 39°14' W 076°33'0 0.0
2014-Apr-16 20:33N 39°14' W 076°33'0 0.0
2014-Apr-16 19:33N 39°14' W 076°33'0 0.0
2014-Apr-16 18:33N 39°14' W 076°33'0 0.0
2014-Apr-16 17:33N 39°14' W 076°33'0 0.0
2014-Apr-16 16:34N 39°14' W 076°33'0 0.0
2014-Apr-16 15:33N 39°14' W 076°33'0 0.0
2014-Apr-16 14:33N 39°14' W 076°33'0 0.0
2014-Apr-16 13:33N 39°14' W 076°33'0 0.0
2014-Apr-16 12:33N 39°14' W 076°33'0 0.0
2014-Apr-16 11:33N 39°14' W 076°33'0 0.0
2014-Apr-16 10:33N 39°14' W 076°33'0 0.0
2014-Apr-16 09:33N 39°14' W 076°33'0 0.0
2014-Apr-16 08:33N 39°14' W 076°33'0 0.0
2014-Apr-16 07:33N 39°14' W 076°33'0 0.0
2014-Apr-16 06:34N 39°14' W 076°33'0 0.0
2014-Apr-16 05:33N 39°14' W 076°33'0 0.0
2014-Apr-16 04:33N 39°14' W 076°33'0 0.0
2014-Apr-16 03:33N 39°14' W 076°33'0 0.0
2014-Apr-16 02:33N 39°14' W 076°33'0 0.0
2014-Apr-16 01:32N 39°14' W 076°33'0 0.0
2014-Apr-16 00:33N 39°14' W 076°33'0 0.0
2014-Apr-15 23:33N 39°14' W 076°33'0 0.0
2014-Apr-15 22:33N 39°14' W 076°33'0 0.1
2014-Apr-15 21:33N 39°14' W 076°33'0 0.0
2014-Apr-15 20:33N 39°14' W 076°33'0 0.1
2014-Apr-15 19:33N 39°14' W 076°33'0 0.0
2014-Apr-15 18:33N 39°14' W 076°33'0 0.2
2014-Apr-15 17:33N 39°14' W 076°33'0 0.0
2014-Apr-15 16:33N 39°14' W 076°33'0 0.0
2014-Apr-15 15:33N 39°14' W 076°33'0 0.1
2014-Apr-15 14:33N 39°14' W 076°33'0 0.0
2014-Apr-15 12:34N 39°14' W 076°33'0 0.1
2014-Apr-15 11:34N 39°14' W 076°33'0 0.0
2014-Apr-15 10:34N 39°14' W 076°33'0 0.0
2014-Apr-15 09:34N 39°14' W 076°33'0 0.0
2014-Apr-15 08:34N 39°14' W 076°33'0 0.0
2014-Apr-15 07:34N 39°14' W 076°33'0 0.0
2014-Apr-15 06:34N 39°14' W 076°33'0 0.0
2014-Apr-15 05:34N 39°14' W 076°33'0 0.0
2014-Apr-15 03:34N 39°14' W 076°33'0 0.0
2014-Apr-15 02:34N 39°14' W 076°33'0 0.0
2014-Apr-15 01:34N 39°14' W 076°33'0 0.0
2014-Apr-15 00:34N 39°14' W 076°33'0 0.0
2014-Apr-14 23:34N 39°14' W 076°33'0 0.0
2014-Apr-14 22:34N 39°14' W 076°33'0 0.0
2014-Apr-14 21:34N 39°14' W 076°33'0 0.0
2014-Apr-14 20:34N 39°14' W 076°33'0 0.0
2014-Apr-14 19:34N 39°14' W 076°33'0 0.0
2014-Apr-14 18:34N 39°14' W 076°33'0 0.0
2014-Apr-14 17:34N 39°14' W 076°33'  

Dump ship's entire track history

sailing weather and tide predictions

Stephen Scott — WCW8842 — position and weather